• Join FlightAware (Why Join?)
  • Login
  • US Flag 
08:05AM EDT


 

Airport Tracker/Info


-or-


 

Live Flight TrackerFlight Track Log ✈ N572EC ✈ 15-Sep-2013 ✈ KGVL - KTEB

Flight Track Log - Related Links

Times and Time Zones

All times are in EDT time to prevent confusion due to time zone crossing. See the N572EC flight status page for this flight to view local times or setup timezone preferences in your user account.

Time Position Orientation Groundspeed Altitude Reporting Facility
EDT Latitude Longitude Course Direction KTS MPH feet Rate Location/Type
02:03PM 34.2656 -83.7622 133° Southeast 204 235 4,200  Level Atlanta Center
02:04PM 34.2194 -83.7022 133° Southeast 237 273 7,600 3,000 Climbing Atlanta Center
02:05PM 34.1714 -83.6397 133° Southeast 260 299 10,300 2,520 Climbing Atlanta Center
02:06PM 34.1169 -83.5697 133° Southeast 284 327 12,700 1,920 Climbing Atlanta Center
02:07PM 34.0831 -83.4669 112° Southeast 310 357 14,200 1,680 Climbing Atlanta Center
02:08PM 34.1306 -83.3536 63° Northeast 310 357 16,100 1,800 Climbing Atlanta Center
02:09PM 34.1986 -83.2478 52° Northeast 351 404 17,900 1,800 Climbing Atlanta Center
02:10PM 34.2708 -83.1364 52° Northeast 388 447 19,800 2,100 Climbing Atlanta Center
02:11PM 34.3431 -83.0147 54° Northeast 404 465 22,200 1,740 Climbing Atlanta Center
02:12PM 34.4131 -82.9058 52° Northeast 412 474 23,300 900 Climbing Atlanta Center
02:13PM 34.4789 -82.7989 53° Northeast 404 465 24,000 600 Climbing Atlanta Center
02:14PM 34.5108 -82.6650 74° East 400 460 24,600 1,020 Climbing Atlanta Center
02:15PM 34.5531 -82.5356 68° East 400 460 26,100 1,440 Climbing Atlanta Center
02:16PM 34.6014 -82.3958 67° East 423 487 27,500 1,620 Climbing Atlanta Center
02:17PM 34.6789 -82.2731 52° Northeast 446 513 29,400 2,100 Climbing Atlanta Center
02:18PM 34.7567 -82.1578 51° Northeast 441 507 31,800 2,340 Climbing Atlanta Center
02:19PM 34.8342 -82.0447 50° Northeast 436 502 34,100 2,160 Climbing Atlanta Center
02:20PM 34.8931 -81.9572 51° Northeast 431 496 36,200 2,280 Climbing Atlanta Center
02:21PM 34.9744 -81.8361 51° Northeast 420 483 38,700 1,920 Climbing Atlanta Center
02:22PM 35.0456 -81.7325 50° Northeast 410 472 40,100 1,140 Climbing Atlanta Center
02:23PM 35.1186 -81.6214 51° Northeast 410 472 41,000 420 Climbing Atlanta Center
02:24PM 35.1956 -81.5072 50° Northeast 417 480 41,000  Level Atlanta Center
02:25PM 35.2703 -81.3931 51° Northeast 423 487 41,000  Level Atlanta Center
02:26PM 35.3469 -81.2736 52° Northeast 430 495 41,000  Level Atlanta Center
02:27PM 35.4236 -81.1564 51° Northeast 437 503 41,000  Level Atlanta Center
02:28PM 35.5019 -81.0311 52° Northeast 452 520 41,000  Level Atlanta Center
02:29PM 35.5825 -80.9158 49° Northeast 447 514 41,000  Level Atlanta Center
02:31PM 35.7769 -80.6228 51° Northeast 447 514 41,000  Level Washington Center
02:33PM 35.8550 -80.5022 51° Northeast 447 514 41,000  Level Washington Center
02:34PM 35.9178 -80.3958 54° Northeast 447 514 41,000  Level Washington Center
02:35PM 36.0017 -80.2778 49° Northeast 447 514 41,000  Level Washington Center
02:35PM 36.0794 -80.1564 52° Northeast 447 514 41,000  Level Washington Center
02:36PM 36.1569 -80.0400 50° Northeast 442 509 41,000  Level Washington Center
02:37PM 36.2386 -79.9133 51° Northeast 450 518 41,000  Level Washington Center
02:39PM 36.3181 -79.7939 50° Northeast 455 524 41,000  Level Washington Center
02:40PM 36.4022 -79.6514 54° Northeast 461 531 41,000  Level Washington Center
02:41PM 36.4794 -79.5261 53° Northeast 461 531 41,000  Level Washington Center
02:41PM 36.5500 -79.4133 52° Northeast 461 531 41,000  Level Washington Center
02:42PM 36.6311 -79.2881 51° Northeast 461 531 41,000  Level Washington Center
02:43PM 36.7100 -79.1597 52° Northeast 461 531 41,000  Level Washington Center
02:44PM 36.7997 -79.0183 52° Northeast 461 531 41,000  Level Washington Center
02:45PM 36.8806 -78.8897 52° Northeast 461 531 41,000  Level Washington Center
02:47PM 36.9753 -78.7767 44° Northeast 461 531 41,000  Level Washington Center
02:47PM 37.0678 -78.6711 42° Northeast 456 525 41,000  Level Washington Center
02:48PM 37.1581 -78.5706 42° Northeast 461 531 41,000  Level Washington Center
02:49PM 37.2525 -78.4619 42° Northeast 461 531 41,000  Level Washington Center
02:50PM 37.3511 -78.3508 42° Northeast 461 531 41,000  Level Washington Center
02:52PM 37.4581 -78.2292 42° Northeast 461 531 41,000  Level Washington Center
02:52PM 37.5500 -78.1222 43° Northeast 455 524 41,000  Level Washington Center
02:53PM 37.6464 -78.0075 43° Northeast 455 524 41,000  Level Washington Center
02:54PM 37.7422 -77.8975 42° Northeast 460 529 41,000  Level Washington Center
02:55PM 37.8383 -77.7847 43° Northeast 460 529 41,000 -360 Level Washington Center
02:56PM 37.9364 -77.6692 43° Northeast 460 529 40,300 -900 Descending Washington Center
02:57PM 38.0319 -77.5558 43° Northeast 460 529 39,300 300 Descending Washington Center
02:59PM 38.1317 -77.4503 40° Northeast 464 534 41,000 -660 Climbing Washington Center
02:59PM 38.2286 -77.3892 26° Northeast 450 518 38,000 -2,520 Descending Washington Center
03:00PM 38.3403 -77.3097 29° Northeast 450 518 36,100 -2,220 Descending Washington Center
03:01PM 38.4458 -77.2114 36° Northeast 456 525 33,600 -2,580 Descending Washington Center
03:02PM 38.5536 -77.1075 37° Northeast 476 548 31,100 -1,680 Descending Washington Center
03:03PM 38.6653 -76.9983 37° Northeast 486 559 30,300 -1,620 Descending Washington Center
03:04PM 38.7728 -76.8936 37° Northeast 494 568 27,900 -2,520 Descending Washington Center
03:05PM 38.8700 -76.7781 43° Northeast 479 551 25,400 -1,980 Descending Washington Center
03:06PM 38.9608 -76.6622 45° Northeast 467 537 24,000 -720 Descending Washington Center
03:07PM 39.0533 -76.5458 44° Northeast 457 526 24,000  Level Washington Center
03:08PM 39.1439 -76.4319 44° Northeast 457 526 24,000  Level Washington Center
03:10PM 39.2342 -76.3150 45° Northeast 457 526 24,000  Level Washington Center
03:10PM 39.3267 -76.2006 44° Northeast 457 526 24,000 -60 Level Washington Center
03:11PM 39.4208 -76.0831 44° Northeast 457 526 23,900 -1,860 Descending Washington Center
03:14PM 39.6167 -75.8333 44° Northeast 427 491 18,500 -2,700 Descending Philadelphia TRACON
03:14PM 39.6833 -75.7333 49° Northeast 415 478 16,000 -2,700 Descending Philadelphia TRACON
03:16PM 39.7667 -75.6333 43° Northeast 388 447 13,200 -1,440 Descending Philadelphia TRACON
03:17PM 39.8500 -75.5500 38° Northeast 378 435 13,000 -120 Descending Philadelphia TRACON
03:18PM 39.9333 -75.4667 37° Northeast 382 440 13,000  Level Philadelphia TRACON
03:19PM 40.0333 -75.3833 33° Northeast 380 437 13,000  Level Philadelphia TRACON
03:20PM 40.1167 -75.3000 37° Northeast 384 442 13,000 -480 Level Philadelphia TRACON
03:21PM 40.2000 -75.2167 37° Northeast 316 364 12,000 -1,200 Descending Philadelphia TRACON
03:22PM 40.2667 -75.1667 30° Northeast 324 373 10,600 -1,680 Descending Philadelphia TRACON
03:24PM 40.4000 -75.0000 44° Northeast 302 348 7,200 -1,260 Descending New York TRACON
03:25PM 40.4500 -74.9333 45° Northeast 297 342 6,900 -840 Descending New York TRACON
03:26PM 40.5000 -74.8500 52° Northeast 294 338 5,700 -1,200 Descending New York TRACON
03:27PM 40.5667 -74.7833 37° Northeast 281 323 4,500 -900 Descending New York TRACON
03:28PM 40.6333 -74.7333 30° Northeast 272 313 4,000 -300 Descending New York TRACON
03:29PM 40.7000 -74.6833 30° Northeast 281 323 4,000  Level New York TRACON
03:30PM 40.7667 -74.6333 30° Northeast 273 314 4,000  Level New York TRACON
03:31PM 40.8333 -74.5833 30° Northeast 274 315 4,000  Level New York TRACON
03:32PM 40.9000 -74.5333 30° Northeast 271 312 4,000 -240 Level New York TRACON
03:32PM 40.9333 -74.4833 49° Northeast 259 298 3,600 -540 Descending New York TRACON
03:33PM 40.9833 -74.4167 45° Northeast 247 284 3,000 -300 Descending New York TRACON
03:34PM 41.0167 -74.3333 62° Northeast 247 284 3,000  Level New York TRACON
03:35PM 41.0167 -74.2500 90° East 215 247 3,000 -300 Level New York TRACON
03:36PM 40.9833 -74.1833 124° Southeast 198 228 2,500 -540 Descending New York TRACON
03:37PM 40.9667 -74.1333 114° Southeast 179 206 2,000 -600 Descending New York TRACON
03:38PM 40.9333 -74.0833 131° Southeast 170 196 1,400 -600 Descending New York TRACON
03:39PM 40.9000 -74.0500 143° Southeast 151 174 900 -600 Descending New York TRACON
03:40PM 40.8667 -74.0667 201° Southwest 138 159 300 -600 Descending New York TRACON
03:42PM 40.8500 -74.0500 152° Southeast  Level FlightAware Approximate
03:49PM 40.8501 -74.0608 152° Southeast  Level Estimated
03:50PM 40.8501 -74.0608 152° Southeast  Level Estimated
03:51PM 40.8501 -74.0608 152° Southeast  Level Estimated
03:52PM 40.8501 -74.0608 152° Southeast  Level Estimated
03:53PM 40.8501 -74.0608 152° Southeast  Level Estimated
03:54PM 40.8501 -74.0608 152° Southeast  Level Estimated
03:55PM 40.8501 -74.0608 152° Southeast  Level Estimated
03:56PM 40.8501 -74.0608 152° Southeast  Level Estimated